Time;durP1;ratioP1;P1;durP2;ratioP2;P2;SDS_P1;SDS_P2;PMS_P1;PMS_P2;Temp;Humidity;BMP_temperature;BMP_pressure;BME280_temperature;BME280_humidity;BME280_pressure;Samples;Min_cycle;Max_cycle;Signal;HPM_P1;HPM_P2
2024/01/10 00:00:12;;;;;;;19.70;8.43;;;;;;;-6.66;73.39;102702.28;5023052;28;20479;-73
2024/01/10 00:02:38;;;;;;;18.90;7.80;;;;;;;-6.67;73.45;102698.06;5020595;28;20392;-73
2024/01/10 00:05:04;;;;;;;19.08;7.22;;;;;;;-6.63;72.67;102693.84;5007291;28;20845;-73
2024/01/10 00:07:29;;;;;;;21.92;8.77;;;;;;;-6.68;72.75;102688.81;5009746;28;20021;-73
2024/01/10 00:09:55;;;;;;;20.30;7.97;;;;;;;-6.68;73.45;102688.81;5004215;28;20483;-73
2024/01/10 00:12:21;;;;;;;22.65;7.90;;;;;;;-6.69;73.29;102690.47;5009290;28;20045;-73
2024/01/10 00:14:46;;;;;;;21.98;8.13;;;;;;;-6.74;73.56;102687.13;5022750;28;20061;-73
2024/01/10 00:17:12;;;;;;;20.88;7.50;;;;;;;-6.78;73.63;102692.16;5023373;28;20044;-73
2024/01/10 00:19:37;;;;;;;20.27;7.35;;;;;;;-6.81;74.21;102689.66;5024353;28;20507;-73
2024/01/10 00:22:03;;;;;;;25.13;9.00;;;;;;;-6.82;74.67;102680.38;5022211;28;20045;-73
2024/01/10 00:24:28;;;;;;;20.33;7.78;;;;;;;-6.81;74.14;102679.56;5011637;28;20479;-73
2024/01/10 00:26:55;;;;;;;23.15;8.18;;;;;;;-6.81;73.75;102677.88;5021091;28;20054;-73
2024/01/10 00:29:20;;;;;;;22.15;8.02;;;;;;;-6.81;73.92;102674.50;5023248;28;20124;-73
2024/01/10 00:31:46;;;;;;;31.63;8.15;;;;;;;-6.83;74.00;102673.66;5015940;28;20183;-73
2024/01/10 00:34:11;;;;;;;19.10;7.38;;;;;;;-6.86;74.36;102667.75;5022047;28;20045;-73
2024/01/10 00:36:37;;;;;;;19.10;6.63;;;;;;;-6.78;73.80;102669.44;5002791;28;20041;-73
2024/01/10 00:39:02;;;;;;;20.40;6.82;;;;;;;-6.78;73.84;102664.41;5018674;28;20030;-73
2024/01/10 00:41:28;;;;;;;20.05;6.88;;;;;;;-6.85;73.83;102663.56;5017830;28;20558;-73
2024/01/10 00:43:53;;;;;;;20.38;7.45;;;;;;;-6.81;73.17;102665.25;5005609;28;21143;-73
2024/01/10 00:46:19;;;;;;;17.52;6.53;;;;;;;-6.87;73.50;102661.03;5019304;28;20061;-73
2024/01/10 00:48:44;;;;;;;20.15;7.10;;;;;;;-6.90;73.83;102665.25;5002957;28;20033;-73
2024/01/10 00:51:10;;;;;;;22.75;7.25;;;;;;;-6.94;74.36;102663.56;5018050;28;20045;-73
2024/01/10 00:53:36;;;;;;;19.63;7.28;;;;;;;-6.89;73.90;102661.91;5014872;28;20030;-73
2024/01/10 00:56:01;;;;;;;20.25;8.15;;;;;;;-6.81;73.50;102669.47;5004003;28;20037;-73
2024/01/10 00:58:26;;;;;;;19.85;7.40;;;;;;;-6.82;72.57;102666.09;5017645;28;20033;-72
2024/01/10 01:00:52;;;;;;;18.42;6.35;;;;;;;-6.95;73.35;102666.91;5000284;28;20037;-73
2024/01/10 01:03:17;;;;;;;18.88;7.35;;;;;;;-7.03;73.75;102658.50;5021680;28;20491;-73
2024/01/10 01:05:43;;;;;;;20.17;6.38;;;;;;;-7.04;74.54;102660.19;5015804;28;20131;-73
2024/01/10 01:08:08;;;;;;;23.58;7.35;;;;;;;-7.11;75.07;102656.81;5021612;28;20040;-73
2024/01/10 01:10:34;;;;;;;18.90;7.40;;;;;;;-7.09;75.28;102657.66;4999506;28;20049;-73
2024/01/10 01:12:59;;;;;;;22.23;7.45;;;;;;;-7.11;75.16;102661.00;5020559;28;20446;-73
2024/01/10 01:15:25;;;;;;;20.52;7.68;;;;;;;-7.15;75.77;102656.81;5015106;28;20033;-72
2024/01/10 01:17:50;;;;;;;20.42;7.13;;;;;;;-7.08;75.53;102661.03;5012792;28;20403;-72
2024/01/10 01:20:16;;;;;;;17.73;6.82;;;;;;;-7.13;75.13;102658.47;5005948;28;20046;-74
2024/01/10 01:22:41;;;;;;;23.20;8.05;;;;;;;-7.17;75.82;102664.38;5017323;28;20457;-73
2024/01/10 01:25:07;;;;;;;22.98;7.55;;;;;;;-7.19;76.52;102663.53;5018454;28;20049;-73
2024/01/10 01:27:32;;;;;;;17.27;6.85;;;;;;;-7.22;76.73;102665.19;5004126;28;20032;-72
2024/01/10 01:29:58;;;;;;;19.23;7.13;;;;;;;-7.26;77.21;102665.16;4999879;28;20021;-73
2024/01/10 01:32:23;;;;;;;23.83;7.88;;;;;;;-7.30;77.82;102660.97;5015761;28;20194;-73
2024/01/10 01:34:49;;;;;;;23.17;7.07;;;;;;;-7.32;78.24;102662.66;5015140;28;20034;-73
2024/01/10 01:37:15;;;;;;;19.52;7.03;;;;;;;-7.34;78.86;102658.44;5013014;28;20038;-72
2024/01/10 01:39:40;;;;;;;21.95;7.65;;;;;;;-7.35;79.26;102659.28;5011741;28;20699;-73
2024/01/10 01:42:06;;;;;;;19.48;7.80;;;;;;;-7.38;79.10;102659.25;5009400;28;20611;-72
2024/01/10 01:44:31;;;;;;;21.52;7.88;;;;;;;-7.41;79.40;102652.53;5005758;28;20045;-73
2024/01/10 01:46:57;;;;;;;21.05;6.65;;;;;;;-7.43;79.80;102647.47;5013931;28;20385;-72
2024/01/10 01:49:25;;;;;;;22.23;7.57;;;;;;;-7.46;80.18;102655.06;4998873;28;20041;-73
2024/01/10 01:51:51;;;;;;;22.23;7.20;;;;;;;-7.48;80.22;102659.25;4997113;28;20037;-72
2024/01/10 01:54:16;;;;;;;19.30;6.97;;;;;;;-7.51;80.51;102651.66;5020933;28;20041;-73
2024/01/10 01:56:44;;;;;;;18.02;7.10;;;;;;;-7.54;80.01;102653.31;5003635;28;20120;-73
2024/01/10 01:59:11;;;;;;;18.23;6.88;;;;;;;-7.58;80.24;102646.59;5002016;28;20033;-73
2024/01/10 02:01:36;;;;;;;20.67;7.63;;;;;;;-7.61;80.10;102649.09;5017498;28;20071;-73
2024/01/10 02:04:05;;;;;;;19.55;6.65;;;;;;;-7.64;80.17;102650.78;5019264;28;20045;-73
2024/01/10 02:06:30;;;;;;;19.52;7.07;;;;;;;-7.67;80.83;102649.91;5019951;28;20038;-73
2024/01/10 02:08:57;;;;;;;17.00;6.55;;;;;;;-7.68;81.05;102646.56;4988587;28;20075;-73
2024/01/10 02:11:24;;;;;;;23.77;7.55;;;;;;;-7.69;81.41;102644.03;5017581;28;20046;-72
2024/01/10 02:13:49;;;;;;;20.60;7.50;;;;;;;-7.70;81.37;102648.22;5017350;28;20040;-73
2024/01/10 02:16:15;;;;;;;23.15;7.30;;;;;;;-7.73;81.70;102635.63;4984034;28;20033;-73
2024/01/10 02:18:40;;;;;;;25.13;7.70;;;;;;;-7.75;82.17;102637.28;5016519;28;20057;-72
2024/01/10 02:21:06;;;;;;;19.25;7.13;;;;;;;-7.77;82.35;102638.97;5020288;28;20040;-72
2024/01/10 02:23:31;;;;;;;16.75;7.15;;;;;;;-7.80;82.52;102628.84;5024588;28;20037;-73
2024/01/10 02:25:57;;;;;;;19.45;7.93;;;;;;;-7.83;82.83;102624.66;5020606;28;20052;-73
2024/01/10 02:28:25;;;;;;;19.45;6.78;;;;;;;-7.85;83.20;102631.38;5025429;28;20087;-73
2024/01/10 02:30:54;;;;;;;14.88;6.25;;;;;;;-7.88;82.74;102616.25;5021638;28;20095;-72
2024/01/10 02:33:19;;;;;;;20.80;6.70;;;;;;;-7.89;82.73;102626.31;5021407;28;20029;-73
2024/01/10 02:35:45;;;;;;;17.35;6.60;;;;;;;-7.91;83.00;102621.28;5022629;28;20368;-73
2024/01/10 02:38:10;;;;;;;22.95;7.22;;;;;;;-7.93;83.14;102625.47;5024366;28;20395;-73
2024/01/10 02:40:36;;;;;;;22.00;8.07;;;;;;;-7.95;83.42;102624.59;5020942;28;20076;-72
2024/01/10 02:43:02;;;;;;;19.17;7.38;;;;;;;-7.96;83.41;102622.09;5020305;28;20543;-73
2024/01/10 02:45:27;;;;;;;17.23;5.88;;;;;;;-7.97;83.49;102617.88;5020046;28;20446;-73
2024/01/10 02:47:53;;;;;;;22.80;7.78;;;;;;;-7.97;83.64;102622.91;5025973;28;20030;-72
2024/01/10 02:50:18;;;;;;;20.73;7.82;;;;;;;-7.98;83.36;102613.69;5031590;28;20677;-72
2024/01/10 02:52:44;;;;;;;17.38;6.75;;;;;;;-7.98;83.42;102608.66;5011474;28;20106;-72
2024/01/10 02:55:09;;;;;;;20.25;7.10;;;;;;;-7.99;83.27;102612.00;5019567;28;20500;-73
2024/01/10 02:57:35;;;;;;;17.25;6.60;;;;;;;-8.00;83.13;102620.38;5027070;28;20495;-72
2024/01/10 03:00:00;;;;;;;18.95;5.90;;;;;;;-8.02;82.96;102621.22;5022005;28;20407;-73
2024/01/10 03:02:26;;;;;;;19.13;6.72;;;;;;;-8.02;82.79;102617.88;5027753;28;20033;-72
2024/01/10 03:04:51;;;;;;;28.38;7.50;;;;;;;-7.94;81.11;102616.22;5025191;28;20022;-72
2024/01/10 03:07:17;;;;;;;18.55;6.63;;;;;;;-7.96;80.76;102609.50;5008869;28;20041;-72
2024/01/10 03:09:43;;;;;;;23.52;7.35;;;;;;;-7.94;80.26;102618.72;5007222;28;20029;-73
2024/01/10 03:12:10;;;;;;;16.98;6.15;;;;;;;-7.92;80.05;102609.50;5025701;28;20120;-72
2024/01/10 03:14:36;;;;;;;15.15;6.53;;;;;;;-7.94;79.64;102602.78;5029110;28;20187;-73
2024/01/10 03:17:02;;;;;;;19.23;8.10;;;;;;;-7.96;80.07;102606.97;5024598;28;20451;-73
2024/01/10 03:19:27;;;;;;;17.30;7.05;;;;;;;-8.00;79.91;102602.75;5029547;28;20060;-72
2024/01/10 03:21:53;;;;;;;19.50;7.20;;;;;;;-8.02;80.39;102605.28;5013476;28;20066;-72
2024/01/10 03:24:19;;;;;;;18.55;7.22;;;;;;;-8.05;80.97;102590.97;5031575;28;20045;-73
2024/01/10 03:26:44;;;;;;;22.77;6.95;;;;;;;-8.07;80.73;102592.66;5005824;28;20053;-73
2024/01/10 03:29:10;;;;;;;20.58;7.20;;;;;;;-8.07;80.73;102587.63;4994431;28;20033;-73
2024/01/10 03:31:35;;;;;;;19.92;7.30;;;;;;;-8.08;80.73;102598.53;5022055;28;20049;-73
2024/01/10 03:34:01;;;;;;;22.00;7.25;;;;;;;-8.09;80.22;102601.88;5014260;28;20041;-74
2024/01/10 03:36:27;;;;;;;21.27;7.38;;;;;;;-8.10;80.12;102600.22;5031174;28;20037;-73
2024/01/10 03:38:52;;;;;;;18.45;6.90;;;;;;;-8.10;79.46;102602.72;5025597;28;20040;-72
2024/01/10 03:41:19;;;;;;;15.75;6.57;;;;;;;-8.11;79.53;102603.53;5022976;28;20084;-73
2024/01/10 03:43:46;;;;;;;22.13;6.95;;;;;;;-8.13;79.59;102605.22;5011436;28;20034;-72
2024/01/10 03:46:12;;;;;;;19.45;7.22;;;;;;;-8.14;80.38;102610.25;5022747;28;20038;-73
2024/01/10 03:48:47;;;;;;;18.33;7.13;;;;;;;-8.16;81.36;102614.44;5027540;28;20037;-73
2024/01/10 03:51:12;;;;;;;18.63;7.03;;;;;;;-8.20;81.56;102605.19;5028790;28;20095;-73
2024/01/10 03:53:37;;;;;;;22.00;7.57;;;;;;;-8.24;82.01;102610.19;5010721;28;20458;-73
2024/01/10 03:56:06;;;;;;;23.90;8.65;;;;;;;-8.27;82.82;102604.28;5009664;28;20748;-73
2024/01/10 03:58:32;;;;;;;19.20;7.10;;;;;;;-8.29;83.41;102601.75;5027117;28;20542;-72
2024/01/10 04:00:57;;;;;;;23.65;7.63;;;;;;;-8.30;83.93;102599.25;5011683;28;20049;-73
2024/01/10 04:03:23;;;;;;;17.80;7.13;;;;;;;-8.35;84.62;102595.88;5027393;28;20036;-73
2024/01/10 04:05:48;;;;;;;24.50;7.55;;;;;;;-8.38;84.89;102598.34;5005982;28;20046;-73
2024/01/10 04:08:14;;;;;;;25.00;8.52;;;;;;;-8.41;85.25;102589.94;5011488;28;20033;-72
2024/01/10 04:10:39;;;;;;;20.83;7.28;;;;;;;-8.41;85.72;102587.44;5005073;28;20041;-73
2024/01/10 04:13:04;;;;;;;24.38;7.70;;;;;;;-8.39;85.22;102600.03;5013158;28;20083;-72
2024/01/10 04:15:30;;;;;;;26.50;8.10;;;;;;;-8.31;83.97;102584.97;5025922;28;20033;-73
2024/01/10 04:17:55;;;;;;;19.95;7.45;;;;;;;-8.36;83.30;102577.41;5024285;28;20036;-72
2024/01/10 04:20:21;;;;;;;23.83;7.90;;;;;;;-8.31;83.14;102572.38;5009035;28;20049;-72
2024/01/10 04:22:47;;;;;;;18.85;7.32;;;;;;;-8.27;82.02;102569.03;5010226;28;20029;-73
2024/01/10 04:25:12;;;;;;;19.60;6.72;;;;;;;-8.14;81.79;102567.44;5018820;28;20041;-73
2024/01/10 04:27:38;;;;;;;18.35;7.38;;;;;;;-8.13;80.85;102564.94;5010048;28;20048;-74
2024/01/10 04:30:05;;;;;;;27.55;7.32;;;;;;;-8.04;80.55;102569.19;5026947;28;20045;-74
2024/01/10 04:32:30;;;;;;;25.38;7.55;;;;;;;-7.91;79.02;102568.38;5027115;28;20043;-72
2024/01/10 04:34:56;;;;;;;22.58;7.97;;;;;;;-7.80;77.73;102570.91;5013564;28;20029;-73
2024/01/10 04:37:21;;;;;;;18.90;7.13;;;;;;;-7.89;77.68;102565.84;5024225;28;20046;-73
2024/01/10 04:39:47;;;;;;;19.77;7.85;;;;;;;-7.81;77.16;102561.69;5029437;28;20060;-72
2024/01/10 04:42:13;;;;;;;22.73;7.72;;;;;;;-7.85;77.41;102567.56;5023623;28;20041;-73
2024/01/10 04:44:38;;;;;;;24.13;7.43;;;;;;;-7.89;77.70;102578.44;4998367;28;20049;-73
2024/01/10 04:47:04;;;;;;;23.65;8.38;;;;;;;-7.84;76.81;102572.59;5003975;28;20034;-73
2024/01/10 04:49:29;;;;;;;23.00;8.15;;;;;;;-7.87;76.98;102569.25;4993368;28;20112;-73
2024/01/10 04:51:55;;;;;;;19.83;7.22;;;;;;;-7.77;76.63;102570.09;5012704;28;20547;-73
2024/01/10 04:54:21;;;;;;;20.33;7.55;;;;;;;-7.71;76.79;102576.00;5027310;28;20178;-73
2024/01/10 04:56:46;;;;;;;25.45;8.15;;;;;;;-7.79;76.93;102574.31;5008152;28;20045;-73
2024/01/10 04:59:12;;;;;;;17.60;6.50;;;;;;;-7.87;77.60;102562.50;5003808;28;20030;-73
2024/01/10 05:01:38;;;;;;;25.58;7.05;;;;;;;-7.77;77.15;102563.38;5025309;28;20037;-73
2024/01/10 05:04:03;;;;;;;19.45;7.07;;;;;;;-7.78;76.47;102564.22;5012355;28;20407;-73
2024/01/10 05:06:29;;;;;;;21.42;8.23;;;;;;;-7.83;77.00;102563.38;5008680;28;20037;-73
2024/01/10 05:08:57;;;;;;;17.83;7.10;;;;;;;-7.87;77.51;102576.78;5027717;28;20376;-74
2024/01/10 05:11:24;;;;;;;20.25;8.02;;;;;;;-7.90;77.36;102575.09;5027585;28;20121;-73
2024/01/10 05:13:49;;;;;;;21.75;7.57;;;;;;;-7.95;77.75;102573.38;5026514;28;20041;-73
2024/01/10 05:16:15;;;;;;;21.52;7.20;;;;;;;-8.00;78.49;102577.56;5029967;28;20041;-73
2024/01/10 05:18:40;;;;;;;21.27;7.15;;;;;;;-7.97;78.13;102580.94;5019378;28;20032;-73
2024/01/10 05:21:06;;;;;;;18.48;6.95;;;;;;;-7.87;77.72;102580.16;5019637;28;20059;-73
2024/01/10 05:23:32;;;;;;;20.80;7.40;;;;;;;-7.86;76.75;102581.81;4991414;28;20059;-73
2024/01/10 05:25:57;;;;;;;22.92;7.90;;;;;;;-7.90;77.48;102577.59;5014304;28;20034;-73
2024/01/10 05:28:23;;;;;;;21.42;7.85;;;;;;;-7.85;77.57;102568.41;4989401;28;20491;-72
2024/01/10 05:30:48;;;;;;;19.83;6.85;;;;;;;-7.87;77.93;102565.03;5007545;28;20041;-73
2024/01/10 05:33:14;;;;;;;19.80;7.45;;;;;;;-7.92;78.53;102566.69;5003731;28;20468;-73
2024/01/10 05:35:39;;;;;;;22.48;8.35;;;;;;;-7.89;79.09;102573.41;5005844;28;20501;-73
2024/01/10 05:38:05;;;;;;;27.27;8.43;;;;;;;-7.91;79.53;102577.59;5006316;28;20040;-73
2024/01/10 05:40:31;;;;;;;24.23;8.10;;;;;;;-7.89;79.40;102573.41;5009981;28;20054;-73
2024/01/10 05:42:59;;;;;;;22.00;7.72;;;;;;;-7.81;78.93;102575.97;5001267;28;20030;-73
2024/01/10 05:45:25;;;;;;;24.35;7.95;;;;;;;-7.84;79.41;102577.63;5001257;28;20562;-73
2024/01/10 05:47:50;;;;;;;24.80;7.90;;;;;;;-7.85;79.71;102567.56;5002278;28;20034;-73
2024/01/10 05:50:15;;;;;;;21.70;7.97;;;;;;;-7.90;79.93;102567.53;4999811;28;20397;-73
2024/01/10 05:52:42;;;;;;;21.23;8.55;;;;;;;-7.92;79.85;102566.69;5006540;28;20026;-73
2024/01/10 05:55:08;;;;;;;31.95;8.95;;;;;;;-7.88;80.01;102572.59;5003551;28;20029;-73
2024/01/10 05:57:35;;;;;;;20.08;8.38;;;;;;;-7.85;80.23;102565.06;5010594;28;20113;-73
2024/01/10 06:00:00;;;;;;;23.17;7.97;;;;;;;-7.88;79.68;102560.00;5006022;28;20037;-73
2024/01/10 06:02:26;;;;;;;24.10;8.10;;;;;;;-7.88;79.71;102565.03;5001337;28;20030;-73
2024/01/10 06:04:52;;;;;;;24.38;8.48;;;;;;;-7.84;79.77;102562.50;5004981;28;20057;-73
2024/01/10 06:07:18;;;;;;;25.77;8.68;;;;;;;-7.76;79.01;102561.69;5000279;28;20068;-73
2024/01/10 06:09:46;;;;;;;21.83;8.00;;;;;;;-7.84;79.64;102562.50;5004556;28;20045;-73
2024/01/10 06:12:11;;;;;;;23.23;8.52;;;;;;;-7.82;79.50;102567.56;4999364;28;20113;-73
2024/01/10 06:14:37;;;;;;;21.95;7.93;;;;;;;-7.84;79.59;102566.72;5001702;28;20716;-72
2024/01/10 06:17:03;;;;;;;29.02;8.57;;;;;;;-7.81;78.87;102566.72;5021549;28;20041;-73
2024/01/10 06:19:31;;;;;;;21.58;7.97;;;;;;;-7.83;78.93;102574.28;5004216;28;20393;-75
2024/01/10 06:21:56;;;;;;;31.30;9.30;;;;;;;-7.79;78.50;102574.31;5000167;28;20030;-73
2024/01/10 06:24:22;;;;;;;21.83;9.10;;;;;;;-7.77;79.42;102577.66;4991338;28;20604;-73
2024/01/10 06:26:49;;;;;;;26.50;8.80;;;;;;;-7.74;78.49;102576.00;5004246;28;20038;-73
2024/01/10 06:29:15;;;;;;;30.25;10.43;;;;;;;-7.75;78.46;102576.81;4998663;28;20034;-73
2024/01/10 06:31:40;;;;;;;25.17;8.75;;;;;;;-7.78;78.48;102574.28;4996574;28;20034;-73
2024/01/10 06:34:06;;;;;;;22.23;8.80;;;;;;;-7.83;79.15;102576.81;5002371;28;20443;-73
2024/01/10 06:36:31;;;;;;;25.33;8.68;;;;;;;-7.80;78.96;102585.19;5004092;28;20076;-73
2024/01/10 06:38:57;;;;;;;23.40;7.85;;;;;;;-7.84;79.19;102584.34;4997454;28;20023;-73
2024/01/10 06:41:25;;;;;;;22.02;8.18;;;;;;;-7.92;79.58;102581.81;5002758;28;20034;-73
2024/01/10 06:43:51;;;;;;;28.50;8.88;;;;;;;-7.98;80.01;102571.72;5035817;28;20041;-73
2024/01/10 06:46:16;;;;;;;24.52;10.05;;;;;;;-8.00;80.69;102575.91;5003517;28;20041;-73
2024/01/10 06:48:42;;;;;;;28.63;10.13;;;;;;;-8.02;80.68;102575.88;5002168;28;20038;-73
2024/01/10 06:51:12;;;;;;;30.38;9.43;;;;;;;-8.02;80.78;102573.38;5026544;28;20030;-73
2024/01/10 06:53:38;;;;;;;36.97;12.10;;;;;;;-8.04;80.87;102567.50;4996152;28;20137;-73
2024/01/10 06:56:04;;;;;;;35.65;12.07;;;;;;;-8.06;81.29;102558.22;5002881;28;20492;-73
2024/01/10 06:58:30;;;;;;;32.60;11.15;;;;;;;-8.06;81.66;102564.13;5015813;28;20031;-73
2024/01/10 07:00:55;;;;;;;31.40;11.43;;;;;;;-8.05;81.46;102563.28;4997067;28;20044;-74
2024/01/10 07:03:20;;;;;;;30.48;10.65;;;;;;;-8.05;81.27;102563.28;4999656;28;20042;-73
2024/01/10 07:05:46;;;;;;;23.00;9.52;;;;;;;-8.04;81.46;102569.19;4994907;28;20045;-73
2024/01/10 07:08:11;;;;;;;26.27;8.85;;;;;;;-8.02;81.82;102562.47;5003496;28;20048;-73
2024/01/10 07:10:38;;;;;;;22.73;8.73;;;;;;;-7.95;81.66;102558.28;4998759;28;20037;-73
2024/01/10 07:13:04;;;;;;;26.15;9.55;;;;;;;-7.97;81.82;102567.50;5018105;28;20042;-73
2024/01/10 07:15:30;;;;;;;24.63;9.50;;;;;;;-7.95;82.18;102566.66;5033303;28;20072;-73
2024/01/10 07:17:55;;;;;;;24.10;9.15;;;;;;;-7.91;82.24;102555.78;5007437;28;20436;-73
2024/01/10 07:20:23;;;;;;;27.80;9.95;;;;;;;-7.88;82.21;102554.94;5001561;28;20053;-73
2024/01/10 07:22:51;;;;;;;26.38;9.52;;;;;;;-7.82;81.14;102557.47;4998275;28;20078;-73
2024/01/10 07:25:17;;;;;;;28.88;10.18;;;;;;;-7.74;80.44;102563.41;4998592;28;20457;-73
2024/01/10 07:27:45;;;;;;;29.40;10.00;;;;;;;-7.66;79.78;102561.72;5005595;28;20065;-73
2024/01/10 07:30:14;;;;;;;28.17;10.07;;;;;;;-7.70;79.21;102560.06;4998937;28;20034;-73
2024/01/10 07:32:43;;;;;;;26.67;9.70;;;;;;;-7.73;80.06;102564.22;5000588;28;20029;-73
2024/01/10 07:35:10;;;;;;;27.95;9.70;;;;;;;-7.72;79.32;102564.25;5030803;28;20062;-73
2024/01/10 07:37:39;;;;;;;32.30;9.80;;;;;;;-7.65;78.64;102562.56;5003434;28;20030;-73
2024/01/10 07:40:06;;;;;;;30.63;9.82;;;;;;;-7.67;78.56;102572.63;5002405;28;20056;-74
2024/01/10 07:42:32;;;;;;;29.48;10.48;;;;;;;-7.63;77.31;102566.78;5008172;28;20026;-73
2024/01/10 07:44:58;;;;;;;27.05;10.10;;;;;;;-7.66;78.12;102564.25;5001833;28;20113;-74
2024/01/10 07:47:24;;;;;;;28.38;9.05;;;;;;;-7.62;78.25;102567.63;5012819;28;20129;-73
2024/01/10 07:49:49;;;;;;;29.35;10.13;;;;;;;-7.62;78.11;102567.63;5037553;28;20052;-73
2024/01/10 07:52:16;;;;;;;29.55;10.82;;;;;;;-7.57;77.93;102565.97;5041460;28;20373;-72
2024/01/10 07:54:41;;;;;;;29.80;9.95;;;;;;;-7.63;78.09;102563.41;5005860;28;20044;-73
2024/01/10 07:57:07;;;;;;;45.90;15.82;;;;;;;-7.54;78.99;102565.94;5017518;28;20039;-73
2024/01/10 07:59:32;;;;;;;52.92;16.27;;;;;;;-7.61;78.74;102561.72;5010633;28;20101;-73
2024/01/10 08:02:00;;;;;;;36.65;11.52;;;;;;;-7.66;79.03;102565.94;5009350;28;20037;-72
2024/01/10 08:04:29;;;;;;;36.60;10.50;;;;;;;-7.63;79.34;102563.41;5006775;28;20500;-73
2024/01/10 08:06:55;;;;;;;34.53;11.20;;;;;;;-7.63;79.78;102565.94;5010453;28;20038;-74
2024/01/10 08:09:23;;;;;;;25.67;8.90;;;;;;;-7.59;79.37;102562.59;5007558;28;20033;-73
2024/01/10 08:11:49;;;;;;;26.27;10.10;;;;;;;-7.65;79.67;102571.00;5034557;28;20503;-73
2024/01/10 08:14:15;;;;;;;28.50;10.23;;;;;;;-7.63;80.29;102566.78;5001164;28;20053;-73
2024/01/10 08:16:41;;;;;;;33.03;10.70;;;;;;;-7.66;80.54;102570.97;5011214;28;20037;-73
2024/01/10 08:19:07;;;;;;;28.25;10.30;;;;;;;-7.54;80.16;102575.19;5023098;28;20031;-73
2024/01/10 08:21:32;;;;;;;30.27;11.45;;;;;;;-7.54;79.95;102580.25;5012220;28;20125;-73
2024/01/10 08:23:58;;;;;;;30.45;10.48;;;;;;;-7.55;80.11;102576.03;5011181;28;20088;-72
2024/01/10 08:26:23;;;;;;;33.55;11.10;;;;;;;-7.53;80.28;102580.25;5014139;28;20038;-72
2024/01/10 08:28:49;;;;;;;33.83;10.27;;;;;;;-7.49;80.69;102579.41;5010003;28;20030;-72
2024/01/10 08:31:17;;;;;;;31.50;12.63;;;;;;;-7.41;80.14;102581.94;5028184;28;20037;-72
2024/01/10 08:33:43;;;;;;;34.10;10.60;;;;;;;-7.43;80.50;102579.41;5026271;28;20353;-72
2024/01/10 08:36:09;;;;;;;29.58;10.73;;;;;;;-7.37;80.03;102583.63;5007818;28;20030;-72
2024/01/10 08:38:35;;;;;;;31.05;11.25;;;;;;;-7.33;79.64;102587.84;5027530;28;20033;-72
2024/01/10 08:41:03;;;;;;;28.75;10.55;;;;;;;-7.30;79.34;102597.09;5033439;28;20567;-72
2024/01/10 08:43:28;;;;;;;31.98;11.63;;;;;;;-7.30;79.78;102595.41;5029602;28;20100;-73
2024/01/10 08:45:54;;;;;;;33.28;11.82;;;;;;;-7.17;79.05;102600.47;5031094;28;20067;-72
2024/01/10 08:48:19;;;;;;;31.00;11.07;;;;;;;-7.15;79.02;102604.69;5031749;28;20040;-72
2024/01/10 08:50:45;;;;;;;31.50;11.55;;;;;;;-7.11;78.42;102593.75;5010354;28;20044;-72
2024/01/10 08:53:10;;;;;;;33.05;11.18;;;;;;;-7.03;78.37;102593.75;5011149;28;20025;-72
2024/01/10 08:55:37;;;;;;;31.95;11.50;;;;;;;-7.00;78.45;102597.97;5028493;28;20174;-72
2024/01/10 08:58:03;;;;;;;29.77;10.63;;;;;;;-6.90;78.30;102602.16;4998966;28;20419;-72
2024/01/10 09:00:29;;;;;;;33.30;13.48;;;;;;;-6.90;77.86;102605.53;5012953;28;20505;-72
2024/01/10 09:02:57;;;;;;;34.30;12.80;;;;;;;-6.91;78.58;102601.34;5011791;28;20095;-72
2024/01/10 09:05:22;;;;;;;34.15;10.35;;;;;;;-6.83;78.29;102592.94;5024509;28;20496;-73
2024/01/10 09:07:48;;;;;;;32.47;11.13;;;;;;;-6.71;77.42;102601.31;5018433;28;20032;-72
2024/01/10 09:10:14;;;;;;;25.15;10.48;;;;;;;-6.73;76.78;102603.00;5026675;28;20570;-72
2024/01/10 09:12:43;;;;;;;32.90;11.15;;;;;;;-6.68;76.94;102601.31;5024521;28;20041;-73
2024/01/10 09:15:12;;;;;;;28.65;10.60;;;;;;;-6.56;75.43;102602.16;5027106;28;20419;-72
2024/01/10 09:17:38;;;;;;;30.05;10.57;;;;;;;-6.53;75.24;102604.69;5021903;28;20120;-72
2024/01/10 09:20:04;;;;;;;31.80;10.80;;;;;;;-6.45;75.06;102602.97;4993298;28;20159;-72
2024/01/10 09:22:29;;;;;;;34.15;11.48;;;;;;;-6.37;73.95;102605.47;5023525;28;20396;-72
2024/01/10 09:24:55;;;;;;;34.20;12.23;;;;;;;-6.25;73.09;102600.41;5024511;28;20036;-73
2024/01/10 09:27:22;;;;;;;33.92;12.02;;;;;;;-6.12;72.46;102603.72;5012152;28;20044;-72
2024/01/10 09:29:48;;;;;;;33.85;11.60;;;;;;;-6.26;72.89;102609.66;5014887;28;20372;-72
2024/01/10 09:32:13;;;;;;;32.72;12.23;;;;;;;-6.19;73.90;102609.66;5028512;28;20041;-72
2024/01/10 09:34:39;;;;;;;32.63;11.93;;;;;;;-6.21;73.53;102607.13;5011310;28;20037;-72
2024/01/10 09:37:05;;;;;;;28.58;10.48;;;;;;;-6.16;73.55;102612.16;5022436;28;20037;-72
2024/01/10 09:39:30;;;;;;;29.48;11.13;;;;;;;-6.12;73.07;102616.34;5020628;28;20034;-72
2024/01/10 09:41:58;;;;;;;28.17;10.30;;;;;;;-6.05;73.27;102610.44;5004255;28;20064;-73
2024/01/10 09:44:24;;;;;;;37.45;12.00;;;;;;;-6.01;72.86;102613.81;5012409;28;20033;-73
2024/01/10 09:46:52;;;;;;;33.78;10.80;;;;;;;-6.00;73.69;102610.44;5022647;28;20038;-72
2024/01/10 09:49:18;;;;;;;30.38;11.20;;;;;;;-5.90;72.02;102620.47;5024808;28;20111;-73
2024/01/10 09:51:48;;;;;;;27.83;11.02;;;;;;;-5.83;71.68;102610.34;4995510;28;20072;-72
2024/01/10 09:54:15;;;;;;;29.58;11.00;;;;;;;-5.76;71.67;102610.31;5026818;28;20038;-72
2024/01/10 09:56:42;;;;;;;37.28;12.68;;;;;;;-5.81;71.84;102611.19;5027535;28;20157;-72
2024/01/10 09:59:10;;;;;;;31.25;12.00;;;;;;;-5.89;72.84;102609.53;5028275;28;20237;-72
2024/01/10 10:01:39;;;;;;;33.70;11.55;;;;;;;-5.82;72.84;102612.88;5014113;28;20094;-72
2024/01/10 10:04:07;;;;;;;33.00;11.18;;;;;;;-5.72;71.36;102604.41;5005398;28;20125;-72
2024/01/10 10:06:33;;;;;;;28.98;10.55;;;;;;;-5.66;71.10;102606.06;5021185;28;20498;-72
2024/01/10 10:08:59;;;;;;;33.95;12.25;;;;;;;-5.62;71.28;102619.53;5006508;28;20112;-72
2024/01/10 10:11:25;;;;;;;33.53;11.63;;;;;;;-5.56;70.52;102610.19;5009875;28;20129;-72
2024/01/10 10:13:50;;;;;;;31.23;11.50;;;;;;;-5.55;70.70;102603.47;5031234;28;20411;-72
2024/01/10 10:16:26;;;;;;;34.65;11.45;;;;;;;-5.48;71.03;102605.13;5009840;28;20080;-72
2024/01/10 10:18:57;;;;;;;30.83;11.77;;;;;;;-5.36;70.46;102599.16;5026554;28;20034;-72
2024/01/10 10:21:26;;;;;;;35.25;12.10;;;;;;;-5.34;70.31;102598.28;5019313;28;20037;-72
2024/01/10 10:24:03;;;;;;;39.55;11.85;;;;;;;-5.22;68.89;102597.34;5009780;28;20068;-72
2024/01/10 10:26:32;;;;;;;33.72;11.90;;;;;;;-5.24;68.70;102608.34;5009631;28;20044;-72
2024/01/10 10:28:58;;;;;;;29.88;11.88;;;;;;;-5.22;68.48;102599.06;5027768;28;20388;-72
2024/01/10 10:31:24;;;;;;;37.95;11.48;;;;;;;-5.20;68.53;102599.88;5026318;28;20048;-72
2024/01/10 10:33:51;;;;;;;29.17;11.20;;;;;;;-5.15;68.66;102601.53;5012698;28;20499;-72
2024/01/10 10:36:16;;;;;;;32.65;11.30;;;;;;;-4.98;68.64;102603.94;5005810;28;20455;-72
2024/01/10 10:38:42;;;;;;;27.10;10.35;;;;;;;-4.95;67.98;102605.63;5025729;28;20033;-72
2024/01/10 10:41:10;;;;;;;32.60;11.95;;;;;;;-4.86;67.81;102602.97;5024212;28;20033;-72
2024/01/10 10:43:37;;;;;;;38.13;11.88;;;;;;;-4.87;67.64;102605.56;5027192;28;20037;-72
2024/01/10 10:46:05;;;;;;;37.03;13.38;;;;;;;-4.81;68.00;102605.50;5025891;28;20044;-72
2024/01/10 10:48:34;;;;;;;30.42;11.90;;;;;;;-4.68;66.57;102612.13;5031236;28;20037;-72
2024/01/10 10:51:11;;;;;;;31.92;11.05;;;;;;;-4.77;66.94;102607.97;5024519;28;20403;-72
2024/01/10 10:53:40;;;;;;;31.60;11.68;;;;;;;-4.47;66.79;102611.09;5013108;28;20038;-72
2024/01/10 10:56:07;;;;;;;30.95;11.98;;;;;;;-4.59;67.10;102601.91;5012368;28;20053;-71
2024/01/10 10:58:40;;;;;;;31.02;11.05;;;;;;;-4.72;67.53;102602.88;5029216;28;20041;-72
2024/01/10 11:01:06;;;;;;;30.15;11.38;;;;;;;-4.76;67.46;102602.06;5010276;28;20120;-72
2024/01/10 11:03:34;;;;;;;26.98;10.30;;;;;;;-4.55;66.24;102601.03;5027609;28;20037;-72
2024/01/10 11:06:01;;;;;;;27.55;11.55;;;;;;;-4.44;66.23;102602.63;5027384;28;20054;-72
2024/01/10 11:08:28;;;;;;;38.70;11.18;;;;;;;-4.44;65.38;102590.81;5031011;28;20037;-72